Latest Coastal Weather Observations for Walpole North

IDW60701

Issued at 10:35 am WST Thursday 24 July 2014 (issued every 10 minutes, with the page automatically refreshed every 10 minutes)

About coastal observations | Map of coastal stations | Coastal observations for WA | Marine services | Other Formats
Station Details ID: 009998 Name: NORTH WALPOLE Lat: -34.95 Lon: 116.72 Height: 73.0 m
Data from the previous 72 hours. | See also: Recent months at Walpole North
Date/Time
WST
Temp

°C
Wind Pressure Rain
since 9am
mm
Weather Cloud Vis
km
Sea
Height
m
Swell
Dir
 
Speed
knots
Gust
knots
hPa Trend Height
m
Period
s
Dir
24/10:30am 14.5 W 6 9 1019.6 - 0.0 - - - - - - -
24/10:00am 13.7 WNW 8 11 1019.6 - 0.0 - - - - - - -
24/09:30am 13.4 W 5 7 1019.3 - 0.0 - - - - - - -
24/09:00am 12.7 WNW 4 6 1019.2 - 5.4 - - - - - - -
24/08:30am 11.7 WNW 5 7 1018.8 - 5.4 - - - - - - -
24/08:00am 11.1 WNW 6 9 1018.5 - 5.4 - - - - - - -
24/07:30am 10.2 WNW 5 7 1018.2 - 5.4 - - - - - - -
24/07:00am 9.8 WNW 5 7 1018.1 - 5.4 - - - - - - -
24/06:30am 10.1 W 4 7 1017.8 - 5.4 - - - - - - -
24/06:00am 10.5 WNW 5 6 1017.7 - 5.4 - - - - - - -
24/05:30am 11.2 WNW 4 5 1017.4 - 5.4 - - - - - - -
24/05:00am 12.1 WSW 6 9 1017.4 - 5.4 - - - - - - -
24/04:30am 12.3 WSW 6 9 1017.1 - 5.4 - - - - - - -
24/04:00am 11.6 W 4 6 1017.2 - 5.4 - - - - - - -
24/03:30am 11.5 W 5 9 1016.9 - 5.4 - - - - - - -
24/03:00am 11.2 W 5 6 1016.9 - 5.4 - - - - - - -
24/02:30am 10.8 W 5 9 1016.9 - 5.4 - - - - - - -
24/02:00am 11.1 W 6 7 1016.6 - 5.4 - - - - - - -
24/01:30am 11.2 W 6 9 1016.5 - 5.4 - - - - - - -
24/01:00am 11.0 W 5 9 1016.3 - 5.4 - - - - - - -
24/12:30am 11.5 W 6 9 1016.4 - 5.4 - - - - - - -
24/12:00am 11.8 WSW 9 13 1016.5 - 5.4 - - - - - - -
 
Date/Time
WST
Temp

°C
Wind Pressure Rain
since 9am
mm
Weather Cloud Vis
km
Sea
Height
m
Swell
Dir
 
Speed
knots
Gust
knots
hPa Trend Height
m
Period
s
Dir
23/11:30pm 11.7 WSW 9 14 1016.5 - 5.4 - - - - - - -
23/11:00pm 11.2 WSW 7 13 1016.4 - 5.4 - - - - - - -
23/10:30pm 11.7 WNW 8 11 1016.3 - 5.4 - - - - - - -
23/10:00pm 11.9 W 8 11 1016.2 - 4.2 - - - - - - -
23/09:30pm 12.2 NW 16 23 1015.4 - 0.2 - - - - - - -
23/09:00pm 12.1 NW 14 21 1015.4 - 0.2 - - - - - - -
23/08:30pm 12.1 NW 16 22 1015.7 - 0.2 - - - - - - -
23/08:00pm 12.0 NW 14 20 1015.6 - 0.2 - - - - - - -
23/07:30pm 11.8 NW 13 17 1015.9 - 0.2 - - - - - - -
23/07:00pm 11.8 NW 12 17 1016.2 - 0.2 - - - - - - -
23/06:30pm 12.0 NW 15 21 1016.3 - 0.0 - - - - - - -
23/06:00pm 11.8 NW 11 16 1016.4 - 0.0 - - - - - - -
23/05:30pm 12.1 NW 13 19 1016.4 - 0.0 - - - - - - -
23/05:00pm 12.8 NW 11 16 1016.4 - 0.0 - - - - - - -
23/04:30pm 13.1 NW 10 13 1016.2 - 0.0 - - - - - - -
23/04:00pm 13.3 NW 12 17 1016.3 - 0.0 - - - - - - -
23/03:30pm 13.7 NW 11 17 1016.5 - 0.0 - - - - - - -
23/03:00pm 13.4 WNW 11 18 1016.7 - 0.0 - - - - - - -
23/02:30pm 12.7 W 7 11 1016.8 - 0.0 - - - - - - -
23/02:00pm 14.0 W 11 19 1016.9 - 0.0 - - - - - - -
23/01:30pm 14.6 WNW 13 19 1016.8 - 0.0 - - - - - - -
23/01:00pm 14.1 WNW 11 18 1017.2 - 0.0 - - - - - - -
23/12:30pm 13.3 NW 13 18 1017.4 - 0.0 - - - - - - -
23/12:00pm 13.3 WNW 11 16 1018.2 - 0.0 - - - - - - -
23/11:30am 13.1 NW 9 14 1018.7 - 0.0 - - - - - - -
23/11:00am 12.0 NW 10 13 1019.1 - 0.0 - - - - - - -
23/10:30am 11.3 NNW 8 13 1019.5 - 0.0 - - - - - - -
23/10:00am 10.7 NW 9 14 1019.9 - 0.0 - - - - - - -
23/09:30am 9.5 NW 11 15 1019.7 - 0.0 - - - - - - -
23/09:00am 9.4 NW 10 15 1019.7 - - - - - - - - -
23/08:30am 9.4 NW 7 10 1019.4 - - - - - - - - -
23/08:00am 8.5 W 3 5 1019.4 - - - - - - - - -
23/07:30am 8.6 NW 3 6 1019.0 - - - - - - - - -
23/07:00am 8.8 NW 7 9 1019.2 - 20.8 - - - - - - -
23/06:30am 8.4 WNW 7 9 1018.9 - 20.8 - - - - - - -
23/06:00am 8.5 WNW 7 11 1018.8 - 20.8 Recent precip. - - - - - -
23/05:30am 8.5 WNW 7 11 1018.7 - 20.6 - - - - - - -
23/05:00am 8.2 NW 6 7 1018.7 - 20.6 - - - - - - -
23/04:30am 8.5 NW 5 7 1018.3 - 20.6 - - - - - - -
23/04:00am 8.9 CALM 0 3 1018.8 - 20.6 - - - - - - -
23/03:30am 9.8 WNW 5 7 1018.9 - 20.6 - - - - - - -
23/03:00am 10.1 NW 7 9 1019.1 - 20.4 Rain - - - - - -
23/02:30am 10.0 CALM 0 0 1018.9 - 20.2 - - - - - - -
23/02:00am 10.1 SW 5 9 1019.2 - 20.0 - - - - - - -
23/01:30am 10.1 W 4 8 1019.0 - 19.8 - - - - - - -
23/01:00am 10.2 SW 5 10 1019.0 - 19.8 - - - - - - -
23/12:30am 10.4 W 5 7 1018.9 - 19.4 - - - - - - -
23/12:00am 10.4 SW 4 7 1019.0 - 18.6 Rain - - - - - -
 
Date/Time
WST
Temp

°C
Wind Pressure Rain
since 9am
mm
Weather Cloud Vis
km
Sea
Height
m
Swell
Dir
 
Speed
knots
Gust
knots
hPa Trend Height
m
Period
s
Dir
22/11:30pm 10.4 WNW 5 9 1018.8 - 17.6 - - - - - - -
22/11:00pm 10.5 SSW 10 14 1019.1 - 17.4 - - - - - - -
22/10:30pm 10.9 WSW 5 8 1018.8 - 17.2 - - - - - - -
22/10:00pm 10.9 W 7 17 1018.5 - 17.2 - - - - - - -
22/09:30pm 11.4 SSW 6 12 1018.3 - 17.0 - - - - - - -
22/09:00pm 11.2 WSW 5 8 1018.2 - 17.0 Recent precip. - - - - - -
22/08:30pm 11.3 SW 6 11 1017.9 - 17.0 - - - - - - -
22/08:00pm 11.4 SW 9 16 1017.6 - 16.6 - - - - - - -
22/07:30pm 11.7 SW 9 14 1017.2 - 16.6 - - - - - - -
22/07:00pm 11.9 SW 9 14 1016.9 - 16.4 - - - - - - -
22/06:30pm 11.8 SW 9 15 1016.4 - 16.2 - - - - - - -
22/06:00pm 11.7 WSW 9 15 1015.8 - 16.0 Rain - - - - - -
22/05:30pm 11.9 SSW 10 19 1015.4 - 14.6 - - - - - - -
22/05:00pm 11.7 SW 7 13 1014.9 - 14.6 - - - - - - -
22/04:30pm 11.9 WSW 9 13 1014.7 - 13.4 - - - - - - -
22/04:00pm 12.0 SSW 10 16 1014.3 - 13.2 - - - - - - -
22/03:30pm 11.0 WSW 11 20 1013.8 - 12.2 - - - - - - -
22/03:00pm 12.3 W 5 8 1013.1 - 10.6 Rain - - - - - -
22/02:30pm 12.4 SW 9 14 1012.6 - 10.2 - - - - - - -
22/02:00pm 12.2 WSW 7 12 1012.1 - 10.0 - - - - - - -
22/01:30pm 11.6 S 6 11 1012.0 - 9.2 - - - - - - -
22/01:00pm 12.1 SW 5 8 1012.1 - 8.6 - - - - - - -
22/12:30pm 11.2 WNW 5 7 1012.0 - 6.8 - - - - - - -
22/12:00pm 11.0 NW 10 14 1012.2 - 1.8 Recent precip. - - - - - -
22/11:30am 11.4 NNW 8 11 1012.5 - 1.6 - - - - - - -
22/11:00am 10.8 NNW 12 17 1012.6 - 0.6 - - - - - - -
22/10:30am 10.4 NW 11 15 1012.7 - 0.4 - - - - - - -
22/10:00am 11.0 NW 13 16 1012.7 - 0.0 - - - - - - -
22/09:30am 10.7 NW 13 18 1012.1 - 0.0 - - - - - - -
22/09:00am 10.1 NW 13 17 1012.0 - 5.2 - - - - - - -
22/08:30am 9.7 NW 14 19 1011.9 - 5.2 - - - - - - -
22/08:00am 9.5 NNW 13 18 1011.6 - 5.2 - - - - - - -
22/07:30am 9.4 NW 10 14 1011.5 - 5.2 - - - - - - -
22/07:00am 9.5 NW 9 11 1011.2 - 5.2 - - - - - - -
22/06:30am 9.5 NW 11 13 1010.9 - 5.2 - - - - - - -
22/06:00am 9.4 NNW 10 14 1010.9 - 5.2 - - - - - - -
22/05:30am 9.5 NNW 11 14 1010.6 - 5.2 - - - - - - -
22/05:00am 9.3 NNW 8 13 1010.6 - 5.2 - - - - - - -
22/04:30am 9.2 WNW 6 8 1010.5 - 5.2 - - - - - - -
22/04:00am 9.5 NNW 10 14 1010.3 - 5.2 - - - - - - -
22/03:30am 9.5 NW 11 14 1010.2 - 5.2 - - - - - - -
22/03:00am 9.5 NW 11 15 1010.4 - 5.0 - - - - - - -
22/02:30am 9.5 N 6 8 1010.2 - 5.0 - - - - - - -
22/02:00am 9.5 NNW 2 6 1010.0 - 5.0 - - - - - - -
22/01:30am 9.6 WNW 6 8 1010.6 - 4.6 - - - - - - -
22/01:00am 9.9 WNW 6 11 1010.7 - 4.2 - - - - - - -
22/12:30am 10.1 NNW 9 12 1010.4 - 3.8 - - - - - - -
22/12:00am 10.2 NNW 8 11 1010.4 - 3.6 Rain - - - - - -
 
Date/Time
WST
Temp

°C
Wind Pressure Rain
since 9am
mm
Weather Cloud Vis
km
Sea
Height
m
Swell
Dir
 
Speed
knots
Gust
knots
hPa Trend Height
m
Period
s
Dir
21/11:30pm 10.3 NNW 7 8 1010.4 - 3.4 - - - - - - -
21/11:00pm 10.5 NW 9 13 1010.4 - 3.2 - - - - - - -
21/10:30pm 10.9 NNW 10 14 1010.8 - 2.0 - - - - - - -
21/10:00pm 11.1 NW 11 18 1010.4 - 1.0 - - - - - - -
21/09:30pm 11.1 NW 8 11 1010.3 - 1.0 - - - - - - -
21/09:00pm 11.3 NW 9 12 1010.3 - 1.0 - - - - - - -
21/08:30pm 11.5 NW 9 14 1010.3 - 1.0 - - - - - - -
21/08:00pm 11.8 NW 9 14 1010.2 - 1.0 - - - - - - -
21/07:30pm 11.8 NNW 11 13 1010.4 - 1.0 - - - - - - -
21/07:00pm 12.2 WNW 10 15 1010.4 - 0.0 - - - - - - -
21/06:30pm 13.1 WNW 5 6 1010.0 - 0.0 - - - - - - -
21/06:00pm 13.6 W 5 7 1009.7 - 0.0 - - - - - - -
21/05:30pm 14.8 N 6 10 1009.4 - 0.0 - - - - - - -
21/05:00pm 15.2 N 8 14 1009.3 - 0.0 - - - - - - -
21/04:30pm 15.5 N 8 15 1009.3 - 0.0 - - - - - - -
21/04:00pm 15.4 N 9 13 1009.3 - 0.0 - - - - - - -
21/03:30pm 16.0 N 9 16 1009.4 - 0.0 - - - - - - -
21/03:00pm 16.3 NNW 10 19 1009.4 - 0.0 - - - - - - -
21/02:30pm 16.6 NNW 9 15 1009.6 - 0.0 - - - - - - -
21/02:00pm 16.3 N 12 19 1009.7 - 0.0 - - - - - - -
21/01:30pm 15.8 N 11 18 1010.3 - 0.0 - - - - - - -
21/01:00pm 15.3 NNW 12 23 1011.1 - 0.0 - - - - - - -
21/12:30pm 15.5 NNW 9 16 1011.4 - 0.0 - - - - - - -
21/12:00pm 15.8 NNW 8 10 1012.1 - 0.0 - - - - - - -
21/11:30am 15.2 NNW 9 16 1012.7 - 0.0 - - - - - - -
21/11:00am 14.9 NNW 9 16 1013.1 - 0.0 - - - - - - -

Other Formats:

Comma delimited format used in spreadsheet applications
http://www.bom.gov.au/fwo/IDW60701/IDW60701.95647.axf

JavaScript Object Notation format (JSON) in row-major order
http://www.bom.gov.au/fwo/IDW60701/IDW60701.95647.json